Home
 
Morpeth (BP) AWS
Home
Latest Observations
 
Search
 
 
Information
  • Contact
  • Copyright Notice
  • Disclaimer
  • Morpeth (Berry Park), NSW
    Automatic Weather Station
    Latitude: 32°44'SLongitude: 151°40'EElevation: 8.0m

    Last update 5:04am local on Thursday 19 July 2018

    Date/Time
    EST
    Temp Dew
    Point
    Rel
    Hum
    Max
    Temp
    MaxT
    Time
    Min
    Temp
    MinT
    Time
    Wind Max Wind Gust Rain
    since 9am
    Wind Dir Speed Gust Max
    Dir
    Max Max
    Time
    °C °C % °C   °C   kts kts kts mm
    19-Jul 05:00 2.0 1.1 94 22.1 13:40 1.2 04:41 0.0
    19-Jul 04:00 2.0 1.1 94 22.1 13:40 1.8 02:55 0.0
    19-Jul 03:00 2.4 1.9 97 22.1 13:40 1.8 02:55 0.0
    19-Jul 02:00 3.6 2.4 92 22.1 13:40 2.9 01:22 0.0
    19-Jul 01:00 3.7 2.1 89 22.1 13:40 3.6 00:59 0.0
    19-Jul 00:00 5.3 2.4 82 22.1 13:40 5.2 23:59 0.0
    18-Jul 23:00 7.4 2.3 70 22.1 13:40 7.2 22:55 0.0
    18-Jul 22:00 8.1 2.3 67 22.1 13:40 8.0 21:59 0.0
    18-Jul 21:00 8.7 2.0 63 22.1 13:40 8.6 21:00 0.0
    18-Jul 20:00 10.3 1.9 56 22.1 13:40 10.2 19:56 0.0
    18-Jul 19:00 12.1 2.2 51 22.1 13:40 12.0 18:59 0.0
    18-Jul 18:00 15.2 0.5 37 22.1 13:40 14.2 17:08 0.0
    18-Jul 17:00 15.5 1.4 39 22.1 13:40 15.0 09:00 0.0
    18-Jul 16:00 20.4 0.4 26 22.1 13:40 15.0 09:00 0.0
    18-Jul 15:00 21.5 -0.0 24 22.1 13:40 15.0 09:00 0.0
    18-Jul 14:00 21.8 0.7 25 22.1 13:40 15.0 09:00 0.0
    18-Jul 13:00 21.4 1.3 27 21.7 12:45 15.0 09:00 0.0
    18-Jul 12:00 20.7 0.8 27 20.8 11:56 15.0 09:00 0.0
    18-Jul 11:00 19.4 0.5 28 19.4 11:00 15.0 09:00 0.0
    18-Jul 10:00 17.6 -0.6 29 17.6 09:58 15.0 09:00 0.0
    18-Jul 09:00 15.1 0.1 36 20.7 14:59 7.1 07:37 0.0
    18-Jul 08:00 10.7 0.6 50 20.7 14:59 7.1 07:37 0.0
    18-Jul 07:00 12.4 -3.0 34 20.7 14:59 8.5 22:10 0.0
    18-Jul 06:00 11.8 -2.8 36 20.7 14:59 8.5 22:10 0.0
    18-Jul 05:00 12.2 -4.0 32 20.7 14:59 8.5 22:10 0.0
    18-Jul 04:00 12.3 -3.5 33 20.7 14:59 8.5 22:10 0.0
    18-Jul 03:00 13.0 -3.3 32 20.7 14:59 8.5 22:10 0.0
    18-Jul 02:00 10.9 -1.7 42 20.7 14:59 8.5 22:10 0.0
    18-Jul 01:00 10.2 -2.8 40 20.7 14:59 8.5 22:10 0.0
    18-Jul 00:00 10.9 -2.9 38 20.7 14:59 8.5 22:10 0.0
    17-Jul 23:00 10.7 -3.4 37 20.7 14:59 8.5 22:10 0.0
    17-Jul 22:00 9.5 -0.7 49 20.7 14:59 9.4 21:59 0.0
    17-Jul 21:00 10.4 -1.8 43 20.7 14:59 9.5 20:14 0.0
    17-Jul 20:00 11.2 -2.4 39 20.7 14:59 11.1 20:00 0.0
    17-Jul 19:00 12.3 -3.0 35 20.7 14:59 11.6 09:00 0.0
    17-Jul 18:00 14.6 -3.0 30 20.7 14:59 11.6 09:00 0.0
    17-Jul 17:00 14.7 -1.8 32 20.7 14:59 11.6 09:00 0.0
    17-Jul 16:00 19.6 -1.6 24 20.7 15:00 11.6 09:00 0.0
    17-Jul 15:00 20.7 -3.5 20 20.7 14:59 11.6 09:00 0.0
    17-Jul 14:00 20.4 -3.3 20 20.5 13:47 11.6 09:00 0.0
    17-Jul 13:00 19.7 -2.7 22 19.7 13:00 11.6 09:00 0.0
    17-Jul 12:00 18.6 -4.0 21 18.8 11:47 11.6 09:00 0.0
    17-Jul 11:00 16.8 -0.9 30 16.9 10:58 11.6 09:00 0.0
    17-Jul 10:00 14.2 -1.3 35 14.2 10:00 11.6 09:00 0.0
    17-Jul 09:00 11.7 -2.7 37 16.6 14:13 1.6 06:06 0.0
    17-Jul 08:00 7.9 -1.7 51 16.6 14:13 1.6 06:06 0.0
    17-Jul 07:00 7.3 -4.4 43 16.6 14:13 1.6 06:06 0.0
    17-Jul 06:00 2.3 -3.2 67 16.6 14:13 2.2 05:59 0.0
    17-Jul 05:00 8.3 -3.6 43 16.6 14:13 4.7 02:55 0.0
    17-Jul 04:00 9.3 -5.1 36 16.6 14:13 4.7 02:55 0.0
    17-Jul 03:00 5.7 -2.9 54 16.6 14:13 4.7 02:55 0.0
    17-Jul 02:00 8.2 -4.1 42 16.6 14:13 5.4 20:56 0.0
    17-Jul 01:00 6.7 -3.4 49 16.6 14:13 5.4 20:56 0.0
    17-Jul 00:00 9.8 -4.6 36 16.6 14:13 5.4 20:56 0.0
    16-Jul 23:00 9.2 -4.1 39 16.6 14:13 5.4 20:56 0.0
    16-Jul 22:00 9.0 -4.6 38 16.6 14:13 5.4 20:56 0.0
    16-Jul 21:00 6.0 -2.0 57 16.6 14:13 5.4 20:56 0.0
    16-Jul 20:00 7.4 -3.2 47 16.6 14:13 5.9 19:36 0.0
    16-Jul 19:00 11.3 -5.0 32 16.6 14:13 7.6 09:00 0.0
    16-Jul 18:00 11.0 -3.9 35 16.6 14:13 7.6 09:00 0.0
    16-Jul 17:00 13.0 -4.0 31 16.6 14:13 7.6 09:00 0.0
    16-Jul 16:00 15.7 -4.4 25 16.6 14:13 7.6 09:00 0.0
    16-Jul 15:00 16.4 -3.4 26 16.6 14:13 7.6 09:00 0.0
    16-Jul 14:00 16.2 -3.9 25 16.4 13:37 7.6 09:00 0.0
    16-Jul 13:00 15.7 -4.4 25 15.9 12:48 7.6 09:00 0.0
    16-Jul 12:00 14.7 -2.4 31 15.0 11:53 7.6 09:00 0.0
    16-Jul 11:00 13.9 -2.8 32 13.9 11:00 7.6 09:00 0.0
    16-Jul 10:00 11.3 -1.0 43 11.3 09:59 7.6 09:00 0.0
    16-Jul 09:00 7.7 -1.0 54 17.4 14:31 -2.3 03:03 0.0
    16-Jul 08:00 4.8 -1.2 65 17.4 14:31 -2.3 03:03 0.0
    16-Jul 07:00 1.5 -1.9 78 17.4 14:31 -2.3 03:03 0.0
    16-Jul 06:00 -0.8 -3.5 82 17.4 14:31 -2.3 03:03 0.0

    Thursday, 19 July 2018
    © 2018 Tim Grugeon